Time;durP1;ratioP1;P1;durP2;ratioP2;P2;SDS_P1;SDS_P2;PMS_P1;PMS_P2;Temp;Humidity;BMP_temperature;BMP_pressure;BME280_temperature;BME280_humidity;BME280_pressure;Samples;Min_cycle;Max_cycle;Signal;HPM_P1;HPM_P2
2023/10/30 00:01:33;;;;;;;12.53;3.20;;;12.90;18.40;;;;;;5019395;28;20395;-83
2023/10/30 00:04:01;;;;;;;9.80;2.90;;;13.00;19.80;;;;;;5018024;28;20199;-84
2023/10/30 00:06:27;;;;;;;10.17;2.70;;;12.90;17.20;;;;;;5019740;28;20177;-83
2023/10/30 00:08:54;;;;;;;9.10;2.37;;;12.90;18.00;;;;;;5033891;28;20212;-84
2023/10/30 00:11:20;;;;;;;8.03;2.63;;;12.80;17.00;;;;;;5037025;28;21041;-88
2023/10/30 00:13:45;;;;;;;12.00;2.70;;;12.80;16.30;;;;;;5012916;28;20182;-86
2023/10/30 00:16:11;;;;;;;11.70;3.10;;;12.80;13.90;;;;;;4997767;28;20183;-84
2023/10/30 00:18:39;;;;;;;7.40;2.57;;;13.00;10.60;;;;;;4997420;28;20178;-86
2023/10/30 00:21:05;;;;;;;10.23;2.50;;;12.90;7.20;;;;;;4999173;28;20254;-85
2023/10/30 00:23:31;;;;;;;11.00;3.07;;;12.90;1.50;;;;;;4999030;28;20247;-85
2023/10/30 00:25:57;;;;;;;12.60;3.20;;;13.00;1.00;;;;;;4998241;28;20187;-85
2023/10/30 00:28:23;;;;;;;10.13;2.90;;;13.00;1.00;;;;;;4997208;28;20233;-86
2023/10/30 00:30:49;;;;;;;12.07;3.23;;;12.90;1.00;;;;;;4996440;28;20197;-84
2023/10/30 00:33:15;;;;;;;9.20;3.33;;;13.00;1.00;;;;;;4998043;28;20174;-88
2023/10/30 00:35:40;;;;;;;9.83;2.93;;;12.90;1.00;;;;;;4996094;28;20186;-83
2023/10/30 00:38:06;;;;;;;9.10;3.30;;;12.90;1.00;;;;;;4999825;28;20173;-85
2023/10/30 00:40:32;;;;;;;10.47;3.00;;;12.90;1.00;;;;;;4998815;28;20177;-87
2023/10/30 00:42:58;;;;;;;10.27;3.20;;;12.90;1.00;;;;;;5009245;28;20174;-85
2023/10/30 00:45:23;;;;;;;10.57;3.20;;;13.00;1.00;;;;;;5038685;28;20193;-82
2023/10/30 00:47:49;;;;;;;11.53;3.07;;;12.90;1.00;;;;;;5038185;28;20261;-86
2023/10/30 00:50:15;;;;;;;9.60;3.80;;;12.90;1.00;;;;;;5037651;28;20242;-86
2023/10/30 00:52:40;;;;;;;9.07;3.27;;;12.90;1.00;;;;;;5039887;28;20177;-83
2023/10/30 00:55:06;;;;;;;10.10;4.40;;;12.90;1.00;;;;;;5041763;28;20184;-83
2023/10/30 00:57:32;;;;;;;11.63;3.93;;;12.90;1.00;;;;;;5042055;28;20181;-83
2023/10/30 00:59:59;;;;;;;11.93;3.80;;;12.90;1.00;;;;;;5041866;28;20188;-83
2023/10/30 01:02:24;;;;;;;10.63;3.67;;;12.90;1.00;;;;;;5040052;28;20525;-85
2023/10/30 01:04:50;;;;;;;9.60;3.97;;;13.00;1.00;;;;;;5020569;28;20200;-84
2023/10/30 01:07:16;;;;;;;7.23;3.53;;;12.90;1.00;;;;;;5002600;28;20178;-86
2023/10/30 01:09:43;;;;;;;12.67;3.80;;;12.90;1.00;;;;;;5002802;28;20210;-84
2023/10/30 01:12:09;;;;;;;8.43;2.93;;;12.90;1.00;;;;;;4996663;28;20178;-84
2023/10/30 01:14:35;;;;;;;9.57;3.37;;;12.90;1.00;;;;;;5010793;28;20182;-84
2023/10/30 01:17:01;;;;;;;10.70;3.10;;;12.90;1.00;;;;;;5017564;28;20228;-83
2023/10/30 01:19:26;;;;;;;7.70;2.60;;;12.90;1.00;;;;;;5016231;28;20190;-85
2023/10/30 01:21:52;;;;;;;9.03;2.73;;;12.90;1.00;;;;;;5014984;28;20333;-87
2023/10/30 01:24:18;;;;;;;12.13;2.90;;;12.90;1.00;;;;;;5016345;28;20203;-82
2023/10/30 01:26:44;;;;;;;8.97;2.90;;;12.90;1.40;;;;;;5018423;28;20218;-82
2023/10/30 01:29:10;;;;;;;11.07;2.40;;;12.90;4.00;;;;;;5020226;28;20217;-81
2023/10/30 01:31:36;;;;;;;13.13;3.30;;;13.00;4.00;;;;;;5019860;28;20245;-83
2023/10/30 01:34:01;;;;;;;10.83;2.70;;;13.00;1.90;;;;;;5038965;28;20191;-83
2023/10/30 01:36:27;;;;;;;6.27;2.20;;;12.90;3.60;;;;;;5040688;28;20188;-81
2023/10/30 01:38:53;;;;;;;7.33;2.37;;;12.90;4.60;;;;;;5039594;28;20170;-83
2023/10/30 01:41:19;;;;;;;9.47;2.50;;;13.00;7.10;;;;;;5040993;28;20606;-81
2023/10/30 01:43:45;;;;;;;10.17;2.30;;;12.90;7.40;;;;;;5037780;28;20175;-85
2023/10/30 01:46:11;;;;;;;11.17;3.03;;;12.90;8.20;;;;;;5033007;28;20226;-83
2023/10/30 01:48:37;;;;;;;10.30;2.10;;;12.90;9.70;;;;;;5037746;28;20199;-83
2023/10/30 01:51:08;;;;;;;7.00;2.20;;;13.00;10.40;;;;;;5034670;28;20198;-82
2023/10/30 01:53:35;;;;;;;10.17;2.60;;;13.00;9.70;;;;;;5026211;28;20174;-81
2023/10/30 01:56:05;;;;;;;7.70;2.27;;;13.00;10.10;;;;;;5026302;28;20190;-81
2023/10/30 01:58:31;;;;;;;7.40;2.17;;;13.00;9.30;;;;;;5022761;28;20178;-86
2023/10/30 02:01:07;;;;;;;11.67;2.77;;;13.00;10.60;;;;;;5021074;28;20174;-81
2023/10/30 02:03:34;;;;;;;9.83;2.57;;;12.90;13.00;;;;;;5019798;28;20627;-84
2023/10/30 02:06:00;;;;;;;8.60;2.13;;;13.00;13.90;;;;;;5018905;28;20285;-84
2023/10/30 02:08:26;;;;;;;6.70;2.53;;;13.00;15.40;;;;;;5017693;28;20218;-84
2023/10/30 02:10:53;;;;;;;11.60;3.00;;;13.00;15.00;;;;;;5016071;28;20178;-83
2023/10/30 02:13:18;;;;;;;9.97;2.33;;;13.00;16.40;;;;;;5032291;28;20228;-81
2023/10/30 02:15:44;;;;;;;10.83;2.73;;;13.00;16.90;;;;;;5033779;28;20182;-82
2023/10/30 02:18:11;;;;;;;11.30;2.50;;;13.00;18.10;;;;;;5028590;28;20244;-83
2023/10/30 02:20:37;;;;;;;10.57;2.50;;;13.00;18.90;;;;;;5023345;28;20183;-83
2023/10/30 02:23:02;;;;;;;10.97;2.87;;;13.10;18.60;;;;;;5022749;28;20234;-83
2023/10/30 02:25:31;;;;;;;7.53;2.10;;;13.10;16.90;;;;;;5021405;28;20230;-83
2023/10/30 02:27:59;;;;;;;8.23;1.87;;;13.10;16.10;;;;;;5015022;28;20170;-83
2023/10/30 02:30:42;;;;;;;8.40;2.20;;;13.10;17.10;;;;;;5014589;28;20210;-83
2023/10/30 02:33:09;;;;;;;10.70;2.83;;;13.10;17.50;;;;;;5015446;28;20166;-86
2023/10/30 02:35:35;;;;;;;7.13;1.80;;;13.00;17.50;;;;;;5015717;28;20241;-88
2023/10/30 02:38:00;;;;;;;8.37;2.17;;;13.10;16.20;;;;;;5013787;28;20237;-83
2023/10/30 02:40:28;;;;;;;13.13;2.40;;;13.10;16.70;;;;;;5014366;28;20510;-82
2023/10/30 02:42:53;;;;;;;9.57;2.30;;;13.00;17.00;;;;;;5014895;28;20167;-83
2023/10/30 02:45:19;;;;;;;10.03;2.33;;;13.00;20.30;;;;;;5014170;28;20182;-83
2023/10/30 02:47:45;;;;;;;7.60;2.70;;;13.00;21.60;;;;;;5014946;28;20236;-81
2023/10/30 02:50:12;;;;;;;7.53;2.50;;;13.00;21.10;;;;;;5015092;28;20622;-81
2023/10/30 02:52:38;;;;;;;11.90;2.80;;;13.10;22.10;;;;;;5016396;28;20201;-82
2023/10/30 02:55:04;;;;;;;8.67;2.03;;;13.00;22.00;;;;;;5034911;28;20206;-80
2023/10/30 02:57:30;;;;;;;8.17;2.40;;;13.10;22.90;;;;;;5015524;28;20240;-81
2023/10/30 02:59:55;;;;;;;10.73;2.53;;;13.00;20.30;;;;;;5015609;28;20179;-83
2023/10/30 03:02:21;;;;;;;7.90;2.43;;;12.90;24.20;;;;;;5008611;28;20183;-83
2023/10/30 03:04:48;;;;;;;9.70;2.40;;;12.90;27.00;;;;;;5004727;28;20658;-84
2023/10/30 03:07:15;;;;;;;12.23;2.40;;;12.90;29.00;;;;;;5004130;28;20179;-82
2023/10/30 03:09:41;;;;;;;6.83;2.13;;;12.90;31.10;;;;;;5007179;28;20202;-82
2023/10/30 03:12:09;;;;;;;9.03;2.30;;;12.80;33.20;;;;;;4993047;28;20187;-85
2023/10/30 03:14:38;;;;;;;9.83;2.40;;;12.90;33.90;;;;;;5010853;28;20273;-85
2023/10/30 03:17:04;;;;;;;12.63;2.23;;;13.00;32.30;;;;;;5018407;28;20198;-82
2023/10/30 03:19:31;;;;;;;7.43;2.10;;;12.90;30.70;;;;;;5021538;28;20250;-85
2023/10/30 03:21:57;;;;;;;9.07;2.27;;;12.80;31.40;;;;;;5024367;28;20175;-82
2023/10/30 03:24:23;;;;;;;11.87;2.60;;;12.80;34.00;;;;;;5023121;28;20585;-87
2023/10/30 03:26:50;;;;;;;9.83;2.80;;;12.90;36.80;;;;;;5017767;28;20265;-87
2023/10/30 03:29:17;;;;;;;8.87;2.40;;;12.70;38.60;;;;;;5020118;28;20336;-85
2023/10/30 03:31:43;;;;;;;13.03;2.87;;;12.80;39.80;;;;;;5016916;28;20301;-82
2023/10/30 03:34:09;;;;;;;9.20;2.27;;;12.70;40.50;;;;;;5018161;28;20213;-85
2023/10/30 03:36:34;;;;;;;8.17;2.43;;;12.80;41.00;;;;;;5020975;28;20206;-83
2023/10/30 03:39:00;;;;;;;6.83;2.33;;;12.80;40.20;;;;;;5017132;28;20678;-81
2023/10/30 03:41:26;;;;;;;10.93;2.37;;;12.90;39.90;;;;;;5016653;28;20795;-82
2023/10/30 03:43:52;;;;;;;9.97;2.50;;;12.80;40.40;;;;;;5017972;28;20170;-84
2023/10/30 03:46:17;;;;;;;10.80;3.00;;;12.70;41.10;;;;;;5017535;28;20546;-83
2023/10/30 03:48:43;;;;;;;10.20;3.17;;;12.80;41.50;;;;;;5016638;28;20208;-82
2023/10/30 03:51:09;;;;;;;10.20;2.30;;;12.80;43.50;;;;;;5020490;28;20182;-83
2023/10/30 03:53:34;;;;;;;11.90;2.53;;;12.70;44.20;;;;;;5016188;28;20544;-83
2023/10/30 03:56:06;;;;;;;10.20;2.20;;;12.80;44.90;;;;;;5016304;28;20178;-82
2023/10/30 03:58:32;;;;;;;10.67;2.40;;;12.70;46.10;;;;;;5016264;28;20167;-82
2023/10/30 04:01:04;;;;;;;5.07;1.93;;;12.60;49.00;;;;;;5017220;28;20174;-82
2023/10/30 04:03:30;;;;;;;12.17;2.70;;;12.70;49.80;;;;;;5018781;28;20175;-81
2023/10/30 04:06:01;;;;;;;8.57;2.33;;;12.60;51.10;;;;;;5018662;28;20246;-83
2023/10/30 04:08:27;;;;;;;7.70;2.10;;;12.70;50.60;;;;;;5016733;28;20194;-84
2023/10/30 04:10:52;;;;;;;10.60;2.30;;;12.70;50.10;;;;;;5017795;28;20179;-83
2023/10/30 04:13:18;;;;;;;11.67;2.97;;;12.70;50.50;;;;;;5016702;28;20230;-83
2023/10/30 04:15:45;;;;;;;10.27;2.10;;;12.60;51.00;;;;;;5016498;28;20205;-82
2023/10/30 04:18:11;;;;;;;8.70;2.10;;;12.80;51.10;;;;;;5017302;28;20239;-83
2023/10/30 04:20:38;;;;;;;9.17;2.10;;;12.60;52.50;;;;;;5018005;28;20206;-82
2023/10/30 04:23:03;;;;;;;13.73;3.53;;;12.60;52.20;;;;;;5016635;28;20693;-84
2023/10/30 04:25:29;;;;;;;8.87;2.50;;;12.80;52.00;;;;;;5017010;28;20182;-83
2023/10/30 04:27:55;;;;;;;8.73;2.40;;;12.70;50.70;;;;;;5016384;28;20232;-83
2023/10/30 04:30:23;;;;;;;12.50;2.67;;;12.70;49.30;;;;;;5016923;28;20226;-83
2023/10/30 04:32:48;;;;;;;11.57;2.83;;;12.60;51.90;;;;;;5015883;28;20296;-82
2023/10/30 04:35:14;;;;;;;9.90;2.17;;;12.50;52.80;;;;;;5016996;28;20713;-85
2023/10/30 04:37:39;;;;;;;12.67;2.23;;;12.70;52.00;;;;;;5016430;28;20178;-83
2023/10/30 04:40:06;;;;;;;10.30;2.40;;;12.80;51.50;;;;;;5016397;28;20174;-83
2023/10/30 04:42:31;;;;;;;8.77;2.40;;;12.60;51.80;;;;;;5036228;28;20177;-83
2023/10/30 04:44:57;;;;;;;9.73;2.70;;;12.70;52.70;;;;;;5030797;28;20522;-80
2023/10/30 04:47:23;;;;;;;9.90;2.63;;;12.80;50.00;;;;;;5016207;28;20193;-82
2023/10/30 04:49:50;;;;;;;9.50;2.27;;;12.80;48.60;;;;;;4996074;28;20629;-81
2023/10/30 04:52:15;;;;;;;9.80;2.67;;;12.90;48.00;;;;;;4996791;28;20246;-81
2023/10/30 04:54:41;;;;;;;10.87;2.50;;;12.60;48.10;;;;;;4997084;28;20175;-82
2023/10/30 04:57:07;;;;;;;11.57;2.17;;;12.60;50.00;;;;;;5012997;28;20309;-82
2023/10/30 04:59:33;;;;;;;9.90;2.87;;;12.60;52.30;;;;;;5016638;28;20682;-82
2023/10/30 05:02:01;;;;;;;12.10;2.80;;;12.60;55.00;;;;;;5016006;28;20177;-81
2023/10/30 05:04:27;;;;;;;11.63;2.40;;;12.60;54.60;;;;;;5018649;28;20173;-82
2023/10/30 05:06:52;;;;;;;7.87;2.00;;;12.60;54.30;;;;;;5017249;28;20178;-82
2023/10/30 05:09:18;;;;;;;7.60;2.43;;;12.60;54.80;;;;;;5014209;28;20611;-83
2023/10/30 05:11:43;;;;;;;7.73;2.50;;;12.60;54.60;;;;;;5016362;28;20205;-82
2023/10/30 05:14:10;;;;;;;9.73;3.50;;;12.50;55.90;;;;;;5014471;28;20221;-80
2023/10/30 05:16:36;;;;;;;9.33;2.50;;;12.50;56.30;;;;;;5014519;28;20179;-80
2023/10/30 05:19:02;;;;;;;10.43;2.47;;;12.50;56.30;;;;;;5014871;28;20257;-82
2023/10/30 05:21:28;;;;;;;8.83;2.23;;;12.50;58.10;;;;;;5014748;28;20201;-83
2023/10/30 05:23:56;;;;;;;11.33;2.40;;;12.50;59.30;;;;;;5015932;28;20177;-83
2023/10/30 05:26:21;;;;;;;10.87;2.50;;;12.60;60.00;;;;;;5015269;28;20192;-82
2023/10/30 05:28:47;;;;;;;7.80;2.07;;;12.50;59.60;;;;;;5014789;28;20229;-81
2023/10/30 05:31:13;;;;;;;9.23;2.30;;;12.50;60.00;;;;;;5017805;28;20166;-83
2023/10/30 05:33:39;;;;;;;8.37;2.40;;;12.50;62.70;;;;;;5034878;28;20178;-82
2023/10/30 05:36:05;;;;;;;9.03;2.70;;;12.50;60.60;;;;;;5048483;28;20177;-83
2023/10/30 05:38:31;;;;;;;14.00;3.20;;;12.50;59.70;;;;;;5051132;28;20189;-82
2023/10/30 05:40:57;;;;;;;7.60;2.10;;;12.50;61.80;;;;;;5050631;28;20665;-81
2023/10/30 05:43:23;;;;;;;10.20;2.27;;;12.40;63.30;;;;;;5041867;28;20177;-83
2023/10/30 05:45:49;;;;;;;9.70;2.37;;;12.30;68.20;;;;;;5024826;28;20238;-81
2023/10/30 05:48:16;;;;;;;10.53;2.20;;;12.40;70.40;;;;;;5010124;28;20238;-81
2023/10/30 05:50:42;;;;;;;11.00;2.63;;;12.40;69.70;;;;;;5025667;28;20226;-81
2023/10/30 05:53:08;;;;;;;8.80;2.33;;;12.30;69.80;;;;;;5010701;28;20234;-83
2023/10/30 05:55:34;;;;;;;10.40;2.80;;;12.40;72.60;;;;;;4999627;28;20222;-84
2023/10/30 05:58:00;;;;;;;10.07;2.57;;;12.30;73.10;;;;;;5001725;28;20174;-83
2023/10/30 06:00:26;;;;;;;10.13;2.70;;;12.30;75.90;;;;;;5001811;28;20631;-81
2023/10/30 06:02:52;;;;;;;13.00;3.20;;;12.30;77.40;;;;;;5000390;28;20626;-83
2023/10/30 06:05:18;;;;;;;12.33;2.83;;;12.30;80.90;;;;;;4995930;28;20175;-82
2023/10/30 06:07:44;;;;;;;12.23;2.83;;;12.30;83.60;;;;;;4996151;28;20232;-81
2023/10/30 06:10:11;;;;;;;7.30;2.33;;;12.20;82.50;;;;;;5011493;28;20215;-82
2023/10/30 06:12:40;;;;;;;10.90;2.50;;;12.20;82.70;;;;;;5026751;28;20225;-83
2023/10/30 06:15:07;;;;;;;13.73;2.87;;;12.30;83.00;;;;;;5025942;28;20185;-81
2023/10/30 06:17:33;;;;;;;11.53;2.67;;;12.30;80.50;;;;;;5043877;28;20165;-82
2023/10/30 06:20:00;;;;;;;8.20;2.50;;;12.30;80.90;;;;;;5037460;28;20174;-82
2023/10/30 06:22:35;;;;;;;11.50;2.83;;;12.30;80.80;;;;;;5035873;28;20244;-82
2023/10/30 06:25:00;;;;;;;11.20;3.30;;;12.20;81.20;;;;;;5035549;28;20183;-83
2023/10/30 06:27:27;;;;;;;7.10;2.17;;;12.20;82.50;;;;;;5034784;28;20190;-82
2023/10/30 06:29:53;;;;;;;9.50;2.43;;;12.30;81.80;;;;;;5033638;28;20206;-82
2023/10/30 06:32:18;;;;;;;9.83;2.90;;;12.10;80.60;;;;;;5034243;28;20183;-83
2023/10/30 06:34:45;;;;;;;10.20;2.80;;;12.30;80.60;;;;;;5042683;28;20170;-81
2023/10/30 06:37:11;;;;;;;9.30;2.70;;;12.30;80.70;;;;;;5042792;28;20180;-83
2023/10/30 06:39:37;;;;;;;10.30;2.43;;;12.30;79.70;;;;;;5045236;28;20226;-82
2023/10/30 06:42:03;;;;;;;17.27;3.57;;;12.20;78.60;;;;;;5043227;28;20254;-85
2023/10/30 06:44:30;;;;;;;9.27;2.80;;;12.10;80.60;;;;;;5039226;28;20745;-85
2023/10/30 06:46:58;;;;;;;9.63;2.40;;;12.30;84.60;;;;;;5025443;28;20190;-87
2023/10/30 06:49:25;;;;;;;11.87;2.67;;;12.20;84.40;;;;;;5019635;28;20211;-83
2023/10/30 06:51:50;;;;;;;10.93;2.67;;;12.30;84.50;;;;;;5022971;28;20179;-82
2023/10/30 06:54:16;;;;;;;10.33;2.80;;;12.40;82.00;;;;;;5021314;28;20198;-83
2023/10/30 06:56:51;;;;;;;11.80;2.73;;;12.40;79.90;;;;;;5026339;28;20599;-81
2023/10/30 06:59:17;;;;;;;10.00;2.70;;;12.40;79.10;;;;;;5027402;28;20221;-83
2023/10/30 07:01:47;;;;;;;8.03;2.57;;;12.40;77.30;;;;;;5021786;28;20174;-82
2023/10/30 07:04:14;;;;;;;18.40;2.80;;;12.40;77.20;;;;;;5023448;28;20622;-84
2023/10/30 07:06:43;;;;;;;11.70;2.60;;;12.40;77.30;;;;;;5019443;28;20178;-86
2023/10/30 07:09:09;;;;;;;10.13;2.77;;;12.50;77.90;;;;;;5020585;28;20214;-86
2023/10/30 07:11:36;;;;;;;9.17;2.50;;;12.50;76.20;;;;;;5020382;28;20162;-86
2023/10/30 07:14:03;;;;;;;11.60;3.13;;;12.50;75.70;;;;;;5020877;28;20169;-85
2023/10/30 07:16:29;;;;;;;9.60;2.83;;;12.60;74.40;;;;;;5019815;28;20181;-89
2023/10/30 07:18:59;;;;;;;11.57;2.97;;;12.60;71.00;;;;;;5019850;28;20177;-86
2023/10/30 07:21:29;;;;;;;11.70;2.90;;;12.70;69.70;;;;;;5020870;28;20243;-85
2023/10/30 07:23:56;;;;;;;9.63;2.80;;;12.60;68.30;;;;;;5023438;28;20166;-81
2023/10/30 07:26:24;;;;;;;12.30;3.10;;;12.60;69.50;;;;;;5015621;28;20183;-86
2023/10/30 07:28:51;;;;;;;8.50;2.90;;;12.70;69.70;;;;;;5004894;28;20209;-85
2023/10/30 07:31:18;;;;;;;11.97;2.87;;;12.70;69.80;;;;;;4986817;28;20175;-86
2023/10/30 07:33:46;;;;;;;11.77;3.20;;;12.80;69.90;;;;;;5019879;28;20187;-84
2023/10/30 07:36:12;;;;;;;11.17;3.43;;;12.70;67.80;;;;;;5033315;28;20184;-83
2023/10/30 07:38:40;;;;;;;11.87;3.10;;;12.70;70.70;;;;;;5043728;28;20173;-82
2023/10/30 07:41:05;;;;;;;11.47;2.70;;;12.80;71.30;;;;;;5024215;28;20192;-81
2023/10/30 07:43:31;;;;;;;7.40;2.63;;;12.90;69.50;;;;;;5022472;28;20183;-82
2023/10/30 07:45:59;;;;;;;8.20;2.83;;;13.00;68.40;;;;;;5006816;28;20170;-85
2023/10/30 07:48:26;;;;;;;15.83;2.97;;;13.20;63.90;;;;;;5025712;28;20202;-85
2023/10/30 07:50:53;;;;;;;8.97;2.83;;;13.30;60.50;;;;;;5024142;28;20269;-85
2023/10/30 07:53:21;;;;;;;11.73;3.20;;;13.30;56.00;;;;;;5025701;28;20191;-81
2023/10/30 07:55:47;;;;;;;9.63;3.03;;;13.40;54.00;;;;;;5025432;28;20234;-82
2023/10/30 07:58:13;;;;;;;13.57;2.93;;;13.40;52.20;;;;;;5020723;28;20179;-82
2023/10/30 08:00:39;;;;;;;13.27;2.83;;;13.50;49.80;;;;;;5023541;28;20186;-88
2023/10/30 08:03:06;;;;;;;9.63;2.80;;;13.70;44.30;;;;;;5024084;28;20345;-86
2023/10/30 08:05:32;;;;;;;10.10;2.87;;;13.80;40.50;;;;;;5032966;28;20173;-80
2023/10/30 08:08:00;;;;;;;9.33;3.10;;;13.60;35.60;;;;;;5038813;28;20180;-83
2023/10/30 08:10:26;;;;;;;9.30;3.33;;;13.60;34.90;;;;;;5036234;28;20214;-83
2023/10/30 08:12:52;;;;;;;11.27;2.80;;;13.60;36.10;;;;;;5032297;28;20194;-82
2023/10/30 08:15:18;;;;;;;9.10;3.13;;;13.70;34.20;;;;;;5017064;28;20175;-85
2023/10/30 08:17:50;;;;;;;11.53;2.63;;;13.60;33.40;;;;;;5018765;28;20195;-85
2023/10/30 08:20:19;;;;;;;10.90;2.87;;;13.50;35.20;;;;;;4989578;28;20183;-89
2023/10/30 08:22:51;;;;;;;9.43;3.07;;;13.50;39.70;;;;;;5002713;28;20175;-88
2023/10/30 08:25:22;;;;;;;7.67;3.13;;;13.50;41.90;;;;;;5003044;28;20641;-87
2023/10/30 08:27:49;;;;;;;12.87;2.83;;;13.50;44.40;;;;;;5001397;28;20175;-87
2023/10/30 08:30:15;;;;;;;8.77;2.90;;;13.60;45.70;;;;;;5006742;28;20766;-86
2023/10/30 08:32:42;;;;;;;7.23;2.50;;;13.50;46.20;;;;;;5004375;28;20172;-85
2023/10/30 08:35:07;;;;;;;8.07;3.13;;;13.60;47.70;;;;;;5021032;28;20167;-88
2023/10/30 08:37:33;;;;;;;15.23;3.30;;;13.60;49.10;;;;;;5020640;28;20186;-88
2023/10/30 08:40:00;;;;;;;8.77;2.20;;;13.60;48.80;;;;;;5020860;28;20628;-89
2023/10/30 08:42:26;;;;;;;5.37;2.43;;;13.60;49.80;;;;;;5020741;28;20166;-87
2023/10/30 08:44:52;;;;;;;10.07;2.40;;;13.60;52.20;;;;;;5023526;28;20187;-85
2023/10/30 08:47:18;;;;;;;7.33;2.40;;;13.70;53.90;;;;;;5034852;28;20185;-81
2023/10/30 08:49:44;;;;;;;11.57;2.83;;;13.60;56.00;;;;;;5018434;28;20223;-83
2023/10/30 08:52:09;;;;;;;5.87;2.20;;;13.60;59.00;;;;;;5018350;28;20187;-82
2023/10/30 08:54:35;;;;;;;8.03;2.00;;;13.60;60.20;;;;;;5013603;28;20211;-82
2023/10/30 08:57:01;;;;;;;10.83;2.77;;;13.70;62.10;;;;;;5007953;28;20181;-83
2023/10/30 08:59:27;;;;;;;10.00;2.83;;;13.70;62.20;;;;;;5023201;28;20213;-82
2023/10/30 09:01:55;;;;;;;8.00;2.63;;;13.60;63.40;;;;;;5011251;28;20180;-81
2023/10/30 09:04:22;;;;;;;13.00;3.50;;;13.60;68.60;;;;;;5018650;28;20192;-85
2023/10/30 09:07:05;;;;;;;11.27;3.00;;;13.70;69.90;;;;;;5014965;28;20179;-82
2023/10/30 09:09:30;;;;;;;11.90;3.20;;;13.70;70.20;;;;;;5017572;28;20218;-81
2023/10/30 09:11:57;;;;;;;8.97;2.83;;;13.60;70.00;;;;;;5023193;28;20183;-81
2023/10/30 09:14:22;;;;;;;16.13;3.67;;;13.60;75.60;;;;;;5036620;28;20237;-83
2023/10/30 09:16:48;;;;;;;10.30;3.33;;;13.60;79.60;;;;;;5026776;28;20638;-83
2023/10/30 09:19:14;;;;;;;9.53;3.17;;;13.70;81.00;;;;;;5029912;28;20183;-81
2023/10/30 09:21:41;;;;;;;10.20;3.47;;;13.70;80.70;;;;;;5018518;28;20236;-84
2023/10/30 09:24:08;;;;;;;9.40;3.30;;;13.70;81.30;;;;;;5018023;28;20175;-85
2023/10/30 09:26:35;;;;;;;10.90;4.00;;;13.80;79.00;;;;;;5035644;28;20166;-80
2023/10/30 09:29:02;;;;;;;11.13;3.73;;;13.90;78.90;;;;;;5024136;28;20201;-81
2023/10/30 09:31:30;;;;;;;12.50;3.80;;;13.80;78.10;;;;;;5025972;28;20231;-82
2023/10/30 09:33:57;;;;;;;9.83;3.70;;;13.80;80.50;;;;;;5021324;28;20178;-81
2023/10/30 09:36:23;;;;;;;12.67;3.13;;;13.80;80.90;;;;;;5016714;28;20216;-86
2023/10/30 09:38:48;;;;;;;9.03;2.57;;;13.90;82.60;;;;;;5030514;28;20183;-83
2023/10/30 09:41:18;;;;;;;14.37;3.67;;;14.00;84.70;;;;;;5014685;28;20254;-82
2023/10/30 09:43:51;;;;;;;9.93;2.90;;;13.90;82.90;;;;;;5016587;28;20164;-86
2023/10/30 09:46:17;;;;;;;5.17;2.40;;;13.90;85.70;;;;;;5019298;28;20230;-87
2023/10/30 09:48:49;;;;;;;9.30;2.03;;;13.90;87.10;;;;;;5034647;28;20209;-82
2023/10/30 09:51:17;;;;;;;8.30;2.97;;;14.00;88.70;;;;;;5036388;28;20637;-82
2023/10/30 09:53:46;;;;;;;6.60;2.10;;;14.00;89.80;;;;;;5035456;28;20170;-82
2023/10/30 09:56:16;;;;;;;7.70;2.20;;;14.00;91.50;;;;;;5035403;28;20239;-82
2023/10/30 09:58:42;;;;;;;7.73;2.40;;;14.00;92.10;;;;;;5016786;28;20186;-81
2023/10/30 10:01:09;;;;;;;9.83;3.00;;;14.10;92.30;;;;;;5019712;28;20177;-84
2023/10/30 10:03:35;;;;;;;9.07;2.30;;;14.00;92.40;;;;;;5001438;28;20184;-84
2023/10/30 10:06:02;;;;;;;5.10;1.83;;;14.10;93.50;;;;;;5017340;28;20189;-80
2023/10/30 10:08:28;;;;;;;6.47;1.97;;;14.00;93.50;;;;;;5007999;28;20178;-84
2023/10/30 10:10:59;;;;;;;8.10;2.60;;;14.00;94.10;;;;;;5040366;28;20206;-84
2023/10/30 10:13:28;;;;;;;7.53;2.77;;;14.20;94.10;;;;;;5022315;28;20171;-84
2023/10/30 10:15:55;;;;;;;6.10;2.67;;;14.20;92.60;;;;;;5030322;28;20903;-81
2023/10/30 10:18:32;;;;;;;5.73;2.60;;;14.30;91.80;;;;;;5033138;28;20185;-81
2023/10/30 10:21:11;;;;;;;6.63;2.10;;;14.30;89.30;;;;;;5019352;28;20266;-84
2023/10/30 10:23:38;;;;;;;6.40;2.27;;;14.30;88.30;;;;;;5010081;28;20236;-84
2023/10/30 10:26:14;;;;;;;5.90;2.50;;;14.50;84.90;;;;;;4999802;28;20256;-85
2023/10/30 10:28:46;;;;;;;8.20;2.17;;;14.50;81.80;;;;;;4998313;28;20653;-86
2023/10/30 10:31:18;;;;;;;8.73;3.00;;;14.60;78.70;;;;;;5008863;28;20177;-88
2023/10/30 10:33:48;;;;;;;8.13;3.53;;;14.70;73.70;;;;;;5020861;28;20565;-82
2023/10/30 10:36:14;;;;;;;5.10;2.50;;;14.80;70.20;;;;;;5017098;28;20544;-85
2023/10/30 10:38:54;;;;;;;4.97;2.80;;;15.00;64.20;;;;;;5020239;28;20184;-83
2023/10/30 10:41:23;;;;;;;6.20;2.60;;;15.00;58.40;;;;;;5027913;28;20186;-85
2023/10/30 10:43:50;;;;;;;6.70;3.07;;;14.90;56.10;;;;;;5017231;28;20188;-81
2023/10/30 10:46:16;;;;;;;6.50;2.70;;;15.00;55.00;;;;;;5029690;28;20210;-82
2023/10/30 10:48:41;;;;;;;5.43;2.33;;;15.00;55.30;;;;;;5008280;28;20619;-82
2023/10/30 10:51:16;;;;;;;7.27;1.70;;;15.00;53.40;;;;;;5018288;28;20205;-85
2023/10/30 10:53:45;;;;;;;3.63;1.30;;;14.90;44.90;;;;;;4998107;28;20262;-84
2023/10/30 10:56:12;;;;;;;4.00;1.60;;;14.80;39.10;;;;;;4997688;28;20237;-82
2023/10/30 10:58:47;;;;;;;4.07;1.30;;;14.80;29.00;;;;;;5008864;28;20631;-83
2023/10/30 11:01:19;;;;;;;5.87;1.90;;;14.80;23.30;;;;;;5015260;28;20233;-86
2023/10/30 11:03:45;;;;;;;4.87;1.70;;;14.90;17.10;;;;;;5017095;28;20195;-81
2023/10/30 11:06:13;;;;;;;3.73;1.63;;;14.90;8.20;;;;;;5016519;28;20543;-83
2023/10/30 11:08:56;;;;;;;3.67;1.77;;;15.00;2.60;;;;;;5018092;28;20155;-86
2023/10/30 11:12:04;;;;;;;4.07;1.43;;;15.00;1.00;;;;;;5020854;28;20221;-86
2023/10/30 11:14:41;;;;;;;4.63;1.80;;;14.90;1.00;;;;;;5020374;28;20577;-85
2023/10/30 11:17:07;;;;;;;5.53;1.83;;;14.80;1.00;;;;;;5019290;28;20230;-85
2023/10/30 11:19:38;;;;;;;4.17;1.70;;;15.00;1.00;;;;;;5019084;28;20207;-87
2023/10/30 11:22:10;;;;;;;16.60;8.20;;;15.00;1.00;;;;;;5021616;28;20165;-81
2023/10/30 11:24:43;;;;;;;13.67;5.60;;;15.10;1.00;;;;;;5017462;28;20166;-82
2023/10/30 11:27:28;;;;;;;9.80;6.20;;;15.00;1.00;;;;;;5018658;28;20529;-80
2023/10/30 11:30:07;;;;;;;11.03;5.60;;;15.00;1.00;;;;;;5019815;28;20290;-85
2023/10/30 11:32:46;;;;;;;12.93;5.70;;;15.00;1.00;;;;;;5020737;28;20158;-86
2023/10/30 11:35:12;;;;;;;8.77;4.90;;;15.10;1.00;;;;;;5019003;28;20217;-87
2023/10/30 11:37:40;;;;;;;10.47;4.93;;;14.90;1.00;;;;;;5018101;28;20159;-83
2023/10/30 11:40:10;;;;;;;8.10;3.87;;;14.80;1.00;;;;;;5020513;28;20222;-88
2023/10/30 11:42:40;;;;;;;5.90;3.10;;;14.80;1.00;;;;;;5020079;28;20167;-87
2023/10/30 11:45:26;;;;;;;9.43;3.70;;;14.80;1.00;;;;;;5021129;28;20172;-83
2023/10/30 11:48:06;;;;;;;6.57;3.23;;;14.80;7.40;;;;;;5022864;28;20200;-85
2023/10/30 11:50:42;;;;;;;5.80;2.60;;;14.60;10.40;;;;;;5037996;28;20209;-85
2023/10/30 11:53:10;;;;;;;7.30;2.80;;;14.40;15.90;;;;;;5038271;28;20251;-84
2023/10/30 11:55:40;;;;;;;6.03;3.07;;;14.10;28.00;;;;;;5039784;28;20179;-82
2023/10/30 11:58:11;;;;;;;7.73;3.10;;;14.00;39.00;;;;;;5039730;28;20168;-88
2023/10/30 12:00:45;;;;;;;7.37;2.97;;;14.00;47.00;;;;;;5040477;28;20280;-89
2023/10/30 12:03:11;;;;;;;6.07;2.70;;;14.10;48.60;;;;;;5040143;28;20201;-85
2023/10/30 12:05:36;;;;;;;5.97;2.73;;;13.90;51.90;;;;;;5040618;28;20629;-84
2023/10/30 12:08:04;;;;;;;6.13;2.90;;;13.80;60.40;;;;;;5038397;28;20175;-86
2023/10/30 12:10:32;;;;;;;9.20;3.37;;;14.00;63.10;;;;;;5039485;28;20211;-85
2023/10/30 12:12:58;;;;;;;6.73;3.03;;;14.00;60.20;;;;;;5038144;28;20233;-85
2023/10/30 12:15:28;;;;;;;6.80;2.80;;;14.00;65.30;;;;;;5038097;28;20253;-81
2023/10/30 12:17:53;;;;;;;8.57;3.60;;;13.90;70.00;;;;;;5037250;28;20165;-87
2023/10/30 12:20:20;;;;;;;9.73;3.60;;;14.00;75.60;;;;;;5039436;28;20177;-82
2023/10/30 12:22:46;;;;;;;8.17;3.27;;;13.90;79.90;;;;;;5046035;28;20182;-81
2023/10/30 12:25:17;;;;;;;6.67;3.37;;;14.10;82.10;;;;;;5028784;28;20177;-82
2023/10/30 12:27:43;;;;;;;7.93;3.83;;;14.20;82.40;;;;;;5048151;28;20209;-81
2023/10/30 12:30:17;;;;;;;9.13;3.50;;;14.20;79.90;;;;;;5053624;28;20238;-82
2023/10/30 12:32:53;;;;;;;7.10;3.53;;;14.40;81.10;;;;;;5051857;28;20158;-81
2023/10/30 12:35:19;;;;;;;10.20;3.00;;;14.40;82.10;;;;;;5054097;28;20163;-80
2023/10/30 12:37:45;;;;;;;3.60;2.23;;;14.50;83.70;;;;;;5051374;28;20630;-80
2023/10/30 12:40:15;;;;;;;5.43;2.97;;;14.60;84.30;;;;;;5040070;28;20237;-83
2023/10/30 12:42:43;;;;;;;9.07;4.10;;;14.70;84.00;;;;;;5036088;28;20180;-81
2023/10/30 12:45:17;;;;;;;5.83;3.80;;;14.80;82.30;;;;;;5038237;28;20203;-82
2023/10/30 12:47:46;;;;;;;5.83;3.13;;;14.80;80.10;;;;;;5038873;28;20197;-83